NCAR-RAP Real-Time Weather Data

Output produced by METARs form (08 May 2021  16:25 UTC)
found at http://weather.rap.ucar.edu/surface/
 
KPIT 081551Z 30015G23KT 10SM SCT029 BKN047 BKN060 08/01 A3001 RMK AO2 PK WND 30027/1502 RAB10E19 SLP174 P0000 T00780006
KPIT 081451Z 29017KT 10SM SCT028 BKN042 BKN055 08/01 A2999 RMK AO2 SLP167 60000 T00780006 53017
KPIT 081430Z 28013KT 10SM SCT024 BKN034 BKN055 08/02 A2998 RMK AO2 T00830017
KPIT 081351Z 28012KT 10SM SCT017 BKN029 BKN050 07/02 A2996 RMK AO2 RAE24 SLP158 P0000 T00670022
KPIT 081251Z 32015G21KT 10SM -RA BKN016 BKN024 OVC036 06/03 A2995 RMK AO2 RAB10 SLP156 P0000 T00610033
KPIT 081151Z 31009KT 10SM FEW016 BKN023 OVC041 06/02 A2994 RMK AO2 SLP149 70018 T00560022 10067 20056 53026
KPIT 081135Z 30011KT 10SM BKN017 BKN045 06/02 A2993 RMK AO2 T00560022
KPIT 081051Z 29008KT 10SM SCT018 BKN031 BKN080 06/02 A2991 RMK AO2 SLP139 T00560022
KPIT 081028Z 29011KT 10SM BKN018 BKN031 OVC075 06/02 A2990 RMK AO2 T00560022
KPIT 081005Z 29014KT 10SM SCT020 SCT075 06/02 A2988 RMK AO2 T00560022
KPIT 080951Z 30014KT 10SM BKN023 BKN075 06/02 A2988 RMK AO2 SLP128 T00610022
KPIT 080918Z 26008KT 10SM FEW018 BKN025 OVC070 06/03 A2986 RMK AO2 T00610033
KPIT 080851Z 26008G14KT 10SM FEW019 SCT027 OVC070 07/03 A2986 RMK AO2 SLP121 T00670033 53002
KPIT 080751Z 26004KT 10SM SCT034 BKN043 OVC050 06/03 A2985 RMK AO2 SLP120 T00610028
KPIT 080651Z 24005KT 10SM BKN034 BKN045 OVC100 06/03 A2985 RMK AO2 SLP120 T00610028
KPIT 080551Z 18004KT 10SM FEW045 FEW060 BKN095 OVC150 06/03 A2985 RMK AO2 SLP121 60000 T00610028 10106 20056 58015
KPIT 080451Z 20003KT 10SM BKN047 BKN060 OVC075 06/03 A2988 RMK AO2 SLP129 T00610028 401170056
KPIT 080351Z 29004KT 10SM FEW060 SCT095 BKN180 06/02 A2989 RMK AO2 DZE03 SLP135 P0000 T00610022
KPIT 080251Z 00000KT 10SM -DZ BKN055 OVC070 07/02 A2990 RMK AO2 DZB28 SLP136 P0000 60000 T00720022 56005
KPIT 080151Z 00000KT 10SM FEW050 BKN100 07/02 A2990 RMK AO2 SLP139 T00670017
KPIT 080051Z 05003KT 10SM FEW050 FEW100 09/00 A2990 RMK AO2 SLP136 T00940000
KPIT 072351Z 32008KT 10SM FEW050 FEW100 10/00 A2991 RMK AO2 SLP140 60000 T01000000 10117 20072 55001
KPIT 072251Z VRB06KT 10SM SCT050 SCT070 12/01 A2990 RMK AO2 SLP136 T01170006
KPIT 072151Z 34010KT 10SM SCT040 SCT060 11/02 A2992 RMK AO2 SLP140 T01110022
KPIT 072051Z 34010KT 10SM BKN032 BKN055 10/02 A2991 RMK AO2 SLP140 60000 T01000022 58003
KPIT 071951Z 33012KT 10SM FEW022 BKN032 BKN049 10/03 A2992 RMK AO2 SLP142 T01000028
KPIT 071938Z 31011KT 10SM FEW020 BKN030 BKN049 09/03 A2992 RMK AO2 T00940028
KPIT 071851Z 31011KT 10SM FEW019 BKN029 OVC037 09/05 A2993 RMK AO2 RAE14 SLP146 P0000 T00940050
KPIT 071751Z 32009KT 10SM -RA FEW012 BKN020 OVC035 07/05 A2992 RMK AO2 SLP145 P0001 60018 T00720050 10072 20056 51009
KPIT 071651Z 31014KT 10SM -RA SCT012 BKN018 OVC031 07/04 A2992 RMK AO2 DZE18RAB18 SLP141 P0000 T00670044
KPIT 071618Z 31008KT 10SM -RA FEW010 OVC016 07/04 A2991 RMK AO2 DZE18RAB18 P0000 T00670044
KPIT 071551Z 34008KT 10SM -DZ FEW007 BKN012 OVC037 07/04 A2991 RMK AO2 RAE20DZB20 SLP138 P0002 T00670044
KPIT 071520Z 32005KT 10SM -DZ SCT007 BKN014 OVC037 06/04 A2990 RMK AO2 RAE20DZB20 P0002 T00610044
KPIT 071451Z 35004KT 7SM -RA SCT007 BKN020 OVC036 06/04 A2990 RMK AO2 SLP134 P0005 60015 T00610039 53002
KPIT 071420Z 33009KT 6SM -RA BR SCT007 BKN020 OVC034 06/04 A2990 RMK AO2 P0002 T00610044
KPIT 071351Z 33008KT 6SM -RA BR BKN007 OVC035 06/04 A2989 RMK AO2 SLP134 P0005 T00610044
KPIT 071333Z 31008KT 6SM -RA BR BKN005 OVC035 06/05 A2989 RMK AO2 P0004 T00610050
KPIT 071251Z 01008KT 5SM -RA BR SCT007 OVC037 06/04 A2988 RMK AO2 SLP129 P0005 T00610044
KPIT 071151Z 32009KT 7SM -RA FEW009 OVC042 06/04 A2989 RMK AO2 SLP132 P0000 60000 T00560039 10083 20056 53004
KPIT 071051Z 30009KT 10SM -RA BKN048 OVC055 07/04 A2988 RMK AO2 RAB31 SLP128 P0000 T00720039
KPIT 070951Z 33004KT 10SM SCT050 OVC070 08/04 A2986 RMK AO2 RAB38E51 SLP122 P0000 T00780044
KPIT 070851Z 32004KT 10SM OVC065 08/04 A2988 RMK AO2 SLP126 T00830039 56015
KPIT 070751Z 00000KT 10SM BKN055 OVC075 07/04 A2989 RMK AO2 SLP130 T00720039
KPIT 070651Z 29003KT 10SM BKN090 BKN150 07/04 A2990 RMK AO2 SLP136 T00670039
KPIT 070551Z 00000KT 10SM SCT100 BKN140 BKN250 08/04 A2992 RMK AO2 SLP141 T00830039 10122 20083 58019
KPIT 070451Z 00000KT 10SM BKN110 OVC170 09/04 A2995 RMK AO2 SLP151 T00940039 401440022
KPIT 070351Z 00000KT 10SM FEW065 SCT130 OVC170 10/03 A2997 RMK AO2 SLP156 T01000033
KPIT 070251Z 19003KT 10SM BKN065 BKN250 11/03 A2998 RMK AO2 SLP162 T01060033 58004
KPIT 070151Z 00000KT 10SM OVC060 12/02 A2999 RMK AO2 SLP165 T01170017
KPIT 070051Z 25003KT 10SM OVC060 12/02 A3000 RMK AO2 SLP168 T01170022
KPIT 062351Z 26004KT 10SM OVC060 12/01 A2999 RMK AO2 SLP168 T01220011 10144 20117 57004
KPIT 062251Z 31004KT 10SM OVC060 13/01 A3000 RMK AO2 SLP169 T01280006
KPIT 062151Z 32006KT 10SM BKN060 OVC250 14/01 A3000 RMK AO2 SLP170 T01390006
KPIT 062051Z 31007KT 10SM BKN055 BKN250 14/01 A3000 RMK AO2 SLP172 T01390006 56022
KPIT 061951Z 34007KT 10SM SCT055 OVC250 13/01 A3002 RMK AO2 SLP176 T01330006
KPIT 061851Z 31007KT 10SM SCT050 OVC250 13/01 A3004 RMK AO2 SLP184 T01280006 $
KPIT 061751Z 32010KT 10SM SCT048 OVC250 12/01 A3007 RMK AO2 SLP195 T01220006 10122 20050 58020 $
KPIT 061651Z 31007KT 10SM BKN045 OVC250 12/01 A3010 RMK AO2 SLP204 T01170006 $